Time;durP1;ratioP1;P1;durP2;ratioP2;P2;SDS_P1;SDS_P2;PMS_P1;PMS_P2;Temp;Humidity;BMP_temperature;BMP_pressure;BME280_temperature;BME280_humidity;BME280_pressure;Samples;Min_cycle;Max_cycle;Signal;HPM_P1;HPM_P2
2022/12/20 00:01:26;;;;;;;8.87;7.97;;;;;;;19.94;36.21;98204.44;4913986;29;20246;-87
2022/12/20 00:03:54;;;;;;;9.00;8.10;;;;;;;19.91;36.05;98197.53;4872536;29;20230;-89
2022/12/20 00:06:23;;;;;;;9.10;8.20;;;;;;;18.46;36.11;97945.91;4917414;29;20610;-91
2022/12/20 00:08:54;;;;;;;8.90;8.00;;;;;;;14.01;36.29;97204.47;4917888;29;20209;-87
2022/12/20 00:11:21;;;;;;;9.97;8.30;;;;;;;16.78;36.57;97659.66;4917272;29;20213;-90
2022/12/20 00:13:48;;;;;;;9.50;8.50;;;;;;;17.89;36.23;97843.03;4917412;29;20757;-91
2022/12/20 00:16:16;;;;;;;8.80;7.90;;;;;;;18.83;36.54;98041.06;4901730;29;20198;-91
2022/12/20 00:18:46;;;;;;;8.50;7.63;;;;;;;17.84;36.33;97826.72;4911825;29;20209;-90
2022/12/20 00:21:13;;;;;;;9.13;8.23;;;;;;;16.37;36.65;97598.31;4917572;29;20257;-89
2022/12/20 00:23:40;;;;;;;9.23;8.23;;;;;;;16.47;36.06;97625.94;4917594;29;20221;-91
2022/12/20 00:26:11;;;;;;;9.20;8.10;;;;;;;15.65;36.22;97509.28;4916238;29;20992;-90
2022/12/20 00:28:38;;;;;;;8.77;7.87;;;;;;;17.59;36.17;97840.69;4917696;29;20210;-90
2022/12/20 00:31:05;;;;;;;8.63;7.73;;;;;;;15.75;36.03;97530.91;4916785;29;20247;-92
2022/12/20 00:33:33;;;;;;;8.93;8.00;;;;;;;18.58;35.99;97989.75;4927245;29;20230;-90
2022/12/20 00:35:59;;;;;;;8.67;7.77;;;;;;;19.22;36.21;98060.78;4925020;29;20613;-91
2022/12/20 00:38:26;;;;;;;10.77;8.83;;;;;;;17.38;36.36;97778.63;4913361;29;20245;-90
2022/12/20 00:41:15;;;;;;;8.70;7.80;;;;;;;16.65;36.06;97700.44;4913985;29;20229;-89
2022/12/20 00:43:42;;;;;;;9.60;8.60;;;;;;;15.79;36.21;97522.66;4917307;29;20237;-90
2022/12/20 00:46:12;;;;;;;9.40;8.40;;;;;;;15.91;36.34;97500.47;4901257;29;20213;-91
2022/12/20 00:48:39;;;;;;;9.23;8.33;;;;;;;17.34;36.35;97719.16;4901410;29;20214;-91
2022/12/20 00:51:10;;;;;;;8.67;7.63;;;;;;;19.76;36.32;98150.03;4901407;29;20209;-90
2022/12/20 00:53:37;;;;;;;9.50;8.50;;;;;;;16.40;36.35;97627.25;4915685;29;20657;-90
2022/12/20 00:56:04;;;;;;;9.50;8.23;;;;;;;19.21;36.47;98061.56;4891461;29;20296;-90
2022/12/20 00:58:35;;;;;;;10.13;8.57;;;;;;;19.06;36.32;98037.91;4915992;29;20212;-91
2022/12/20 01:01:03;;;;;;;8.97;8.07;;;;;;;18.04;36.42;97863.28;4916119;29;20214;-92
2022/12/20 01:03:32;;;;;;;10.30;8.73;;;;;;;19.18;36.38;98061.41;4909764;29;20485;-91
2022/12/20 01:06:00;;;;;;;9.30;8.23;;;;;;;18.04;36.52;97887.06;4916018;29;20244;-90
2022/12/20 01:08:27;;;;;;;9.60;8.60;;;;;;;17.66;36.33;97780.09;4911920;29;20213;-90
2022/12/20 01:11:12;;;;;;;9.10;8.07;;;;;;;18.38;36.42;97939.59;4927028;29;20266;-90
2022/12/20 01:13:42;;;;;;;9.20;8.27;;;;;;;19.03;36.32;98038.66;4910837;29;20266;-90
2022/12/20 01:16:17;;;;;;;8.30;7.50;;;;;;;19.62;36.47;98138.31;4922233;29;20644;-90
2022/12/20 01:18:44;;;;;;;8.63;7.73;;;;;;;17.52;36.25;97768.38;4912677;29;20245;-91
2022/12/20 01:21:11;;;;;;;9.83;8.50;;;;;;;19.32;36.25;98091.88;4914070;29;20659;-91
2022/12/20 01:23:39;;;;;;;9.67;8.17;;;;;;;19.56;36.28;98120.19;4915883;29;20257;-91
2022/12/20 01:26:09;;;;;;;9.00;8.10;;;;;;;19.46;36.37;98103.59;4915423;29;20221;-92
2022/12/20 01:28:37;;;;;;;9.77;7.97;;;;;;;18.43;36.33;97908.47;4912827;29;20289;-91
2022/12/20 01:31:07;;;;;;;9.43;8.13;;;;;;;19.32;36.34;98080.81;4915609;29;20208;-90
2022/12/20 01:33:34;;;;;;;9.43;8.53;;;;;;;18.42;36.46;97921.09;4910849;29;20226;-91
2022/12/20 01:36:03;;;;;;;9.30;8.00;;;;;;;19.29;36.21;98045.88;4912568;29;20244;-91
2022/12/20 01:38:30;;;;;;;8.20;7.40;;;;;;;19.47;36.40;98079.84;4908768;29;20213;-91
2022/12/20 01:40:57;;;;;;;8.93;8.03;;;;;;;18.83;36.46;97975.69;4892103;29;20213;-88
2022/12/20 01:43:25;;;;;;;9.57;8.50;;;;;;;18.85;36.37;98007.22;4914042;29;20312;-90
2022/12/20 01:45:51;;;;;;;8.87;7.97;;;;;;;18.41;36.26;97899.03;4910822;29;20700;-91
2022/12/20 01:48:22;;;;;;;8.80;7.90;;;;;;;19.04;36.41;98019.16;4915085;29;20251;-91
2022/12/20 01:50:49;;;;;;;8.23;7.33;;;;;;;17.87;36.22;97820.91;4915180;29;20669;-89
2022/12/20 01:53:15;;;;;;;8.63;7.80;;;;;;;18.38;36.66;97883.59;4883846;29;20697;-91
2022/12/20 01:55:42;;;;;;;8.97;8.07;;;;;;;18.10;36.28;97869.53;4915125;29;20222;-87
2022/12/20 01:58:10;;;;;;;8.53;7.73;;;;;;;18.02;36.24;97865.75;4903607;29;20210;-92
2022/12/20 02:00:37;;;;;;;8.73;7.83;;;;;;;19.24;36.45;98048.94;4913785;29;20210;-90
2022/12/20 02:03:08;;;;;;;8.47;7.63;;;;;;;18.06;36.29;97864.25;4914222;29;20221;-91
2022/12/20 02:05:37;;;;;;;9.20;8.30;;;;;;;19.03;35.89;98040.31;4905968;29;20241;-91
2022/12/20 02:08:04;;;;;;;8.90;8.00;;;;;;;18.63;36.34;97962.84;4909974;29;20281;-92
2022/12/20 02:10:54;;;;;;;8.40;7.60;;;;;;;18.46;36.37;97923.88;4906025;29;20294;-91
2022/12/20 02:13:44;;;;;;;9.00;8.10;;;;;;;19.51;36.40;98127.63;4912076;29;20670;-91
2022/12/20 02:16:13;;;;;;;9.13;8.23;;;;;;;17.29;36.40;97714.69;4922782;29;20292;-90
2022/12/20 02:18:49;;;;;;;9.40;8.07;;;;;;;19.93;36.25;98162.75;4901768;29;20205;-90
2022/12/20 02:21:24;;;;;;;9.70;8.70;;;;;;;19.94;36.31;98163.63;4925071;29;20261;-90
2022/12/20 02:24:19;;;;;;;8.80;7.90;;;;;;;19.93;36.31;98161.88;4927180;29;20252;-90
2022/12/20 02:27:10;;;;;;;8.70;7.80;;;;;;;19.92;36.25;98163.56;4918612;29;20693;-90
2022/12/20 02:30:00;;;;;;;8.83;7.83;;;;;;;19.93;36.44;98169.53;4912187;29;20273;-91
2022/12/20 02:32:30;;;;;;;9.53;8.43;;;;;;;18.67;36.30;97934.19;4915939;29;20232;-91
2022/12/20 02:34:56;;;;;;;9.23;7.93;;;;;;;18.17;36.16;97840.16;4912631;29;20202;-90
2022/12/20 02:37:23;;;;;;;8.53;7.63;;;;;;;18.40;36.38;97887.97;4914629;29;20202;-91
2022/12/20 02:39:51;;;;;;;8.77;7.83;;;;;;;17.74;36.31;97765.19;4911674;29;20465;-89
2022/12/20 02:42:20;;;;;;;8.80;7.90;;;;;;;18.36;36.48;97865.69;4913454;29;20662;-91
2022/12/20 02:48:10;;;;;;;9.23;8.23;;;;;;;19.93;36.35;98136.38;4908227;29;20210;-91
2022/12/20 02:50:42;;;;;;;9.13;8.23;;;;;;;19.35;36.24;98023.22;4888158;29;20277;-91
2022/12/20 02:53:09;;;;;;;8.83;7.87;;;;;;;18.78;36.21;97918.63;4906467;29;20282;-90
2022/12/20 02:55:46;;;;;;;9.37;8.47;;;;;;;19.94;36.26;98127.91;4909291;29;20261;-91
2022/12/20 02:58:21;;;;;;;8.30;7.50;;;;;;;19.43;36.42;98034.66;4927089;29;20213;-90
2022/12/20 03:00:48;;;;;;;8.77;7.87;;;;;;;18.34;36.26;97852.00;4909587;29;20253;-91
2022/12/20 03:03:23;;;;;;;9.73;8.30;;;;;;;19.03;36.40;97958.78;4926151;29;20273;-92
2022/12/20 03:05:53;;;;;;;7.80;7.03;;;;;;;18.18;36.52;97867.38;4888417;29;20209;-90
2022/12/20 03:08:20;;;;;;;9.37;8.37;;;;;;;17.18;36.34;97627.81;4913976;29;20256;-91
2022/12/20 03:10:47;;;;;;;8.57;7.77;;;;;;;18.63;36.50;97877.19;4913065;29;20201;-91
2022/12/20 03:13:13;;;;;;;8.40;7.50;;;;;;;18.67;36.44;97889.25;4929782;29;20253;-91
2022/12/20 03:15:40;;;;;;;9.87;8.20;;;;;;;17.58;36.73;97694.09;4914148;29;20296;-90
2022/12/20 03:18:07;;;;;;;9.07;8.17;;;;;;;17.73;36.48;97749.06;4916563;29;20296;-91
2022/12/20 03:20:34;;;;;;;9.20;8.30;;;;;;;17.54;36.37;97693.09;4916392;29;20349;-89
2022/12/20 03:23:00;;;;;;;8.13;7.33;;;;;;;18.64;36.25;97884.00;4917941;29;20257;-91
2022/12/20 03:25:27;;;;;;;9.33;8.40;;;;;;;17.04;36.48;97611.03;4933361;29;20221;-91
2022/12/20 03:27:53;;;;;;;9.13;7.90;;;;;;;18.39;36.77;97842.09;4917775;29;20209;-91
2022/12/20 03:30:20;;;;;;;9.13;7.53;;;;;;;18.32;36.35;97829.84;4933128;29;20209;-91
2022/12/20 03:32:47;;;;;;;8.90;8.00;;;;;;;18.04;36.51;97780.25;4917304;29;20304;-90
2022/12/20 03:35:13;;;;;;;9.10;8.20;;;;;;;19.23;36.48;97979.31;4899437;29;20221;-91
2022/12/20 03:37:40;;;;;;;9.00;8.10;;;;;;;17.41;36.26;97667.84;4901090;29;20220;-91
2022/12/20 03:40:07;;;;;;;9.20;8.27;;;;;;;19.76;36.46;98088.81;4917582;29;20237;-91
2022/12/20 03:42:34;;;;;;;8.43;7.50;;;;;;;19.35;36.29;98019.78;4917213;29;20225;-91
2022/12/20 03:45:01;;;;;;;9.53;7.87;;;;;;;19.64;36.31;98068.75;4917560;29;20209;-90
2022/12/20 03:47:27;;;;;;;8.93;8.03;;;;;;;18.97;36.56;97940.69;4931848;29;20268;-91
2022/12/20 03:49:54;;;;;;;8.63;7.77;;;;;;;19.07;36.53;97941.19;5049902;23;20228;-83
2022/12/20 03:52:20;;;;;;;9.30;8.40;;;;;;;19.46;36.47;98014.38;4949133;29;20477;-84
2022/12/20 03:54:47;;;;;;;8.90;8.00;;;;;;;17.27;36.57;97630.78;4935939;29;20288;-83
2022/12/20 03:57:13;;;;;;;9.17;8.10;;;;;;;19.39;36.53;98002.16;4916769;29;20224;-84
2022/12/20 03:59:40;;;;;;;8.77;7.87;;;;;;;19.94;36.64;98099.84;4925686;29;20729;-84
2022/12/20 04:02:06;;;;;;;9.13;8.20;;;;;;;19.94;36.73;98097.28;4919547;29;20293;-82
2022/12/20 04:04:33;;;;;;;8.73;7.83;;;;;;;18.44;36.61;97843.19;4915922;29;20342;-84
2022/12/20 04:07:00;;;;;;;8.30;7.50;;;;;;;16.84;36.55;97553.34;4918288;29;20225;-84
2022/12/20 04:09:26;;;;;;;8.60;7.73;;;;;;;19.94;36.65;98097.28;4935376;29;20329;-84
2022/12/20 04:11:53;;;;;;;9.13;8.20;;;;;;;19.95;36.62;98091.38;4913637;29;20252;-84
2022/12/20 04:14:20;;;;;;;8.50;7.53;;;;;;;19.34;36.58;97974.72;4906446;29;20221;-84
2022/12/20 04:16:46;;;;;;;8.60;7.70;;;;;;;19.93;36.53;98063.25;4923156;29;20214;-83
2022/12/20 04:19:13;;;;;;;8.10;7.30;;;;;;;18.04;36.32;97731.91;4911544;29;20241;-84
2022/12/20 04:21:40;;;;;;;8.40;7.60;;;;;;;19.87;36.38;98055.31;4915599;29;20209;-84
2022/12/20 04:24:07;;;;;;;8.33;7.43;;;;;;;19.16;36.54;97928.00;4923252;29;20268;-84
2022/12/20 04:26:33;;;;;;;8.47;7.57;;;;;;;19.94;36.62;98067.56;4920344;29;20210;-84
2022/12/20 04:29:00;;;;;;;10.37;7.93;;;;;;;18.56;36.45;97839.50;4918375;29;20214;-83
2022/12/20 04:31:26;;;;;;;9.10;8.20;;;;;;;16.35;36.55;97445.22;4906385;29;20246;-84
2022/12/20 04:33:53;;;;;;;10.30;8.20;;;;;;;19.55;36.43;98044.50;4922028;29;20232;-84
2022/12/20 04:36:21;;;;;;;8.80;7.97;;;;;;;17.76;36.47;97706.00;4920238;29;20233;-84
2022/12/20 04:38:50;;;;;;;8.07;7.27;;;;;;;19.95;36.44;98089.72;4933822;29;20570;-84
2022/12/20 04:41:23;;;;;;;7.83;7.03;;;;;;;19.95;36.68;98089.72;4918537;29;20301;-84
2022/12/20 04:43:51;;;;;;;9.20;7.60;;;;;;;19.63;36.37;98017.69;4931169;29;20206;-84
2022/12/20 04:46:18;;;;;;;8.83;7.93;;;;;;;19.64;36.63;98021.97;4906314;29;20210;-84
2022/12/20 04:48:44;;;;;;;8.90;8.00;;;;;;;19.95;36.60;98063.31;4913938;29;20212;-84
2022/12/20 04:51:24;;;;;;;8.67;7.77;;;;;;;16.83;37.09;97523.72;4935462;29;20238;-84
2022/12/20 04:53:54;;;;;;;8.43;7.43;;;;;;;19.08;36.53;97906.41;4920679;29;20281;-85
2022/12/20 04:56:26;;;;;;;8.93;8.03;;;;;;;19.40;36.69;97952.06;4905871;29;20641;-84
2022/12/20 04:58:53;;;;;;;9.23;7.80;;;;;;;19.94;36.61;98049.72;4928837;29;20261;-83
2022/12/20 05:01:20;;;;;;;8.70;7.80;;;;;;;19.35;36.57;97973.91;4915849;29;20253;-84
2022/12/20 05:03:50;;;;;;;8.30;7.50;;;;;;;19.95;36.59;98055.66;4921661;29;20206;-84
2022/12/20 05:06:17;;;;;;;8.23;7.33;;;;;;;19.94;36.59;98049.72;4921503;29;20224;-84
2022/12/20 05:08:44;;;;;;;8.73;7.83;;;;;;;19.94;36.64;98047.16;4917086;29;20273;-83
2022/12/20 05:11:12;;;;;;;8.37;7.57;;;;;;;18.71;36.74;97824.91;4921382;29;20273;-84
2022/12/20 05:13:39;;;;;;;8.77;7.87;;;;;;;19.96;36.58;98031.91;4918228;29;20245;-83
2022/12/20 05:16:06;;;;;;;9.97;8.53;;;;;;;19.96;36.23;98025.13;4913711;29;20723;-84
2022/12/20 05:18:33;;;;;;;9.80;8.80;;;;;;;19.26;36.52;97918.28;4914029;29;20293;-84
2022/12/20 05:26:33;;;;;;;8.90;7.70;;;;;;;19.25;36.56;97934.38;4923251;29;20209;-84
2022/12/20 05:29:00;;;;;;;8.23;7.43;;;;;;;14.82;36.52;97118.50;4909714;29;20636;-84
2022/12/20 05:31:26;;;;;;;8.73;7.83;;;;;;;18.73;36.62;97789.34;4913972;29;20693;-84
2022/12/20 05:33:53;;;;;;;8.83;7.90;;;;;;;19.96;36.31;98014.91;4898050;29;20226;-85
2022/12/20 05:36:20;;;;;;;8.27;7.47;;;;;;;19.27;36.68;97898.81;4917431;29;20232;-90
2022/12/20 05:38:46;;;;;;;8.27;7.47;;;;;;;17.80;36.75;97733.28;4913526;29;20210;-90
2022/12/20 05:41:13;;;;;;;9.13;8.13;;;;;;;18.53;36.28;97760.47;4912394;29;20261;-90
2022/12/20 05:43:39;;;;;;;8.40;7.50;;;;;;;18.98;36.60;97843.13;4913687;29;20210;-88
2022/12/20 05:46:06;;;;;;;9.00;8.10;;;;;;;19.96;36.34;98017.47;4931562;29;20277;-85
2022/12/20 05:48:33;;;;;;;9.33;8.43;;;;;;;18.98;36.82;97866.91;4917046;29;20202;-85
2022/12/20 05:51:00;;;;;;;9.73;8.73;;;;;;;18.70;36.62;97814.66;4918488;29;20241;-84
2022/12/20 05:53:26;;;;;;;9.33;8.43;;;;;;;19.63;36.57;97975.19;4905077;29;20489;-83
2022/12/20 05:55:53;;;;;;;9.30;8.30;;;;;;;19.16;36.97;97899.97;4928456;29;20218;-83
2022/12/20 05:58:20;;;;;;;9.90;8.60;;;;;;;19.26;36.44;97913.19;4910612;29;20279;-83
2022/12/20 06:00:46;;;;;;;9.77;8.77;;;;;;;19.97;36.37;98041.31;4914507;29;20659;-85
2022/12/20 06:03:14;;;;;;;10.63;9.07;;;;;;;19.97;36.78;98033.66;4886658;29;20213;-83
2022/12/20 06:05:42;;;;;;;10.33;8.80;;;;;;;19.92;36.43;98037.66;4907792;29;20261;-84
2022/12/20 06:08:09;;;;;;;10.73;9.13;;;;;;;14.58;36.64;97136.78;4911760;29;20570;-85
2022/12/20 06:10:35;;;;;;;9.20;8.30;;;;;;;19.26;36.57;97914.84;4910458;29;20256;-85
2022/12/20 06:13:02;;;;;;;10.13;9.07;;;;;;;17.48;36.52;97623.31;4896374;29;20240;-84
2022/12/20 06:15:29;;;;;;;9.50;8.60;;;;;;;18.82;36.52;97833.03;4902904;29;20221;-85
2022/12/20 06:17:56;;;;;;;9.77;8.87;;;;;;;14.62;36.65;97113.34;4919010;29;20206;-85
2022/12/20 06:20:22;;;;;;;10.43;9.07;;;;;;;18.55;36.58;97785.97;4927893;29;20316;-85
2022/12/20 06:22:49;;;;;;;10.30;8.63;;;;;;;19.19;36.98;97981.66;4916957;29;20227;-84
2022/12/20 06:25:15;;;;;;;9.73;8.73;;;;;;;19.42;36.50;97912.22;4913836;29;20206;-83
2022/12/20 06:27:42;;;;;;;9.93;8.90;;;;;;;19.85;36.13;97977.88;4913875;29;20263;-84
2022/12/20 06:30:09;;;;;;;9.10;8.20;;;;;;;18.17;36.47;97690.97;4920395;29;20312;-84
2022/12/20 06:32:35;;;;;;;9.43;8.30;;;;;;;18.22;36.82;97706.44;4914599;29;20293;-84
2022/12/20 06:35:02;;;;;;;9.67;8.50;;;;;;;18.76;36.36;97795.47;4916018;29;20290;-84
2022/12/20 06:37:29;;;;;;;9.33;8.10;;;;;;;19.98;36.57;98007.31;4892624;29;20240;-84
2022/12/20 06:39:56;;;;;;;9.00;8.10;;;;;;;17.60;36.31;97588.31;4918190;29;20261;-85
2022/12/20 06:42:22;;;;;;;9.20;8.30;;;;;;;19.97;36.05;97997.94;4915473;29;20226;-84
2022/12/20 06:44:49;;;;;;;16.67;12.93;;;;;;;19.43;35.73;97899.56;4918900;29;20206;-84
2022/12/20 06:47:15;;;;;;;18.23;16.17;;;;;;;19.40;34.43;97912.16;4900498;29;20212;-83
2022/12/20 06:49:42;;;;;;;20.67;18.00;;;;;;;19.33;33.21;97906.72;4908502;29;20229;-84
2022/12/20 06:52:08;;;;;;;21.47;19.17;;;;;;;19.96;32.62;98006.41;4896793;29;20209;-84
2022/12/20 06:54:35;;;;;;;23.47;20.90;;;;;;;19.64;32.35;97959.13;4910132;29;20230;-84
2022/12/20 06:57:02;;;;;;;24.93;21.33;;;;;;;19.30;31.67;97904.91;4917710;29;20251;-83
2022/12/20 06:59:29;;;;;;;25.07;21.70;;;;;;;17.47;31.24;97619.91;4915945;29;20232;-83
2022/12/20 07:01:55;;;;;;;24.60;22.00;;;;;;;13.31;31.69;96994.53;4915299;29;20233;-85
2022/12/20 07:04:22;;;;;;;23.27;19.80;;;;;;;18.50;32.29;97760.31;4950499;29;20201;-84
2022/12/20 07:06:49;;;;;;;24.80;21.57;;;;;;;19.88;32.87;98003.53;4926601;29;20233;-84
2022/12/20 07:09:15;;;;;;;23.43;20.20;;;;;;;19.14;33.04;97937.25;4918195;29;20236;-85
2022/12/20 07:11:42;;;;;;;22.30;19.80;;;;;;;16.40;33.29;97428.56;4890849;29;20208;-84
2022/12/20 07:14:09;;;;;;;21.87;19.47;;;;;;;18.88;33.70;97833.31;4932341;29;20232;-85
2022/12/20 07:16:36;;;;;;;20.90;17.47;;;;;;;17.97;33.86;97707.00;4876302;29;20202;-85
2022/12/20 07:19:03;;;;;;;21.63;18.03;;;;;;;18.19;33.90;97711.38;4916222;29;20206;-85
2022/12/20 07:21:29;;;;;;;20.00;17.47;;;;;;;19.83;34.36;98025.41;4907474;29;20206;-85
2022/12/20 07:23:56;;;;;;;20.27;16.97;;;;;;;19.42;34.33;97930.91;4904557;29;20202;-85
2022/12/20 07:26:22;;;;;;;18.23;15.80;;;;;;;17.85;34.65;97660.66;4907834;29;20210;-84
2022/12/20 07:28:49;;;;;;;17.97;15.87;;;;;;;17.92;34.63;97669.44;4926356;29;20296;-85
2022/12/20 07:31:15;;;;;;;19.30;16.37;;;;;;;19.63;34.44;97961.59;4915585;29;20233;-85
2022/12/20 07:33:42;;;;;;;18.20;15.33;;;;;;;18.28;34.47;97755.06;4894785;29;20218;-85
2022/12/20 07:36:10;;;;;;;16.57;14.73;;;;;;;16.80;34.63;97489.69;4917966;29;20217;-85
2022/12/20 07:38:36;;;;;;;16.47;14.27;;;;;;;18.91;34.78;97882.72;4878245;29;20222;-85
2022/12/20 07:41:14;;;;;;;16.93;14.80;;;;;;;14.96;34.77;97185.84;4918426;29;20229;-85
2022/12/20 07:43:40;;;;;;;17.33;14.23;;;;;;;18.14;35.01;97720.47;4878766;29;20205;-85
2022/12/20 07:46:07;;;;;;;17.43;14.50;;;;;;;19.54;35.18;97982.44;4918840;29;20269;-85
2022/12/20 07:48:35;;;;;;;17.23;14.20;;;;;;;19.87;35.02;98029.81;4876416;29;20229;-85
2022/12/20 07:51:07;;;;;;;15.43;13.57;;;;;;;19.24;35.01;97945.38;4915610;29;20286;-85
2022/12/20 07:53:34;;;;;;;15.00;12.83;;;;;;;16.50;35.29;97440.03;4901461;29;20213;-85
2022/12/20 07:56:02;;;;;;;14.53;13.03;;;;;;;15.48;35.30;97266.94;4918988;29;20693;-85
2022/12/20 07:58:29;;;;;;;16.17;12.67;;;;;;;18.07;34.97;97711.72;4918979;29;20209;-85
2022/12/20 08:00:55;;;;;;;14.13;12.43;;;;;;;18.06;34.93;97734.53;4916303;29;20762;-86
2022/12/20 08:03:28;;;;;;;15.23;12.13;;;;;;;19.89;35.38;98037.53;4912253;29;20213;-85
2022/12/20 08:05:55;;;;;;;13.77;11.87;;;;;;;19.50;35.80;97972.03;4911420;29;20237;-84
2022/12/20 08:08:22;;;;;;;15.07;12.23;;;;;;;18.90;35.73;97858.06;4920966;29;20300;-84
2022/12/20 08:10:48;;;;;;;14.47;12.33;;;;;;;19.12;35.44;97888.75;4932729;29;20229;-85
2022/12/20 08:13:15;;;;;;;13.33;11.60;;;;;;;19.27;35.46;97911.56;4917412;29;20205;-86
2022/12/20 08:15:41;;;;;;;13.43;11.50;;;;;;;17.65;35.36;97625.84;4916705;29;20416;-85
2022/12/20 08:18:08;;;;;;;13.20;11.37;;;;;;;19.91;35.46;98015.53;4890829;29;20634;-84
2022/12/20 08:20:35;;;;;;;12.03;10.00;;;;;;;19.56;35.21;97959.56;4918077;29;20232;-85
2022/12/20 08:23:03;;;;;;;11.93;10.43;;;;;;;19.58;35.38;97973.25;4890442;29;20301;-85
2022/12/20 08:25:29;;;;;;;11.63;10.33;;;;;;;19.45;35.24;97932.75;4931248;29;20236;-85
2022/12/20 08:28:02;;;;;;;11.33;10.13;;;;;;;19.92;35.25;98007.94;4924159;29;20232;-85
2022/12/20 08:30:29;;;;;;;11.47;10.23;;;;;;;18.50;35.23;97756.94;4914043;29;20627;-85
2022/12/20 08:32:56;;;;;;;12.07;10.13;;;;;;;19.24;35.73;97875.69;4914707;29;20211;-84
2022/12/20 08:35:22;;;;;;;12.77;10.43;;;;;;;18.92;35.84;97830.13;4929669;29;20717;-85
2022/12/20 08:37:52;;;;;;;13.17;10.30;;;;;;;16.55;35.86;97433.53;4895752;29;20667;-84
2022/12/20 08:40:19;;;;;;;11.73;9.37;;;;;;;17.62;36.02;97599.44;4945429;28;20229;-85
2022/12/20 08:42:46;;;;;;;11.03;9.60;;;;;;;19.95;35.92;98004.63;4893197;29;20203;-84
2022/12/20 08:45:12;;;;;;;11.63;9.73;;;;;;;18.70;35.94;97772.28;4913491;29;20201;-85
2022/12/20 08:47:39;;;;;;;11.23;9.80;;;;;;;17.43;36.34;97539.28;4894450;29;20297;-85
2022/12/20 08:50:06;;;;;;;11.10;9.97;;;;;;;19.00;35.94;97844.03;4934385;29;20246;-85
2022/12/20 08:52:32;;;;;;;10.70;9.27;;;;;;;19.95;35.76;97976.59;4910358;29;20205;-85
2022/12/20 08:54:59;;;;;;;9.53;8.53;;;;;;;19.39;35.91;97884.06;4924593;29;20241;-85
2022/12/20 08:57:27;;;;;;;10.47;9.23;;;;;;;17.36;36.15;97529.63;4920644;29;20213;-85
2022/12/20 08:59:54;;;;;;;12.57;9.07;;;;;;;18.70;36.01;97768.84;4906531;29;20320;-88
2022/12/20 09:02:20;;;;;;;14.40;9.27;;;;;;;19.93;35.87;97984.16;4931725;29;20208;-86
2022/12/20 09:04:47;;;;;;;9.63;8.73;;;;;;;19.95;36.12;97997.88;4901127;29;20210;-86
2022/12/20 09:07:14;;;;;;;8.83;7.93;;;;;;;19.78;36.19;97969.91;4914603;29;20667;-84
2022/12/20 09:09:40;;;;;;;9.57;8.57;;;;;;;16.64;36.18;97424.66;4916770;29;20237;-84
2022/12/20 09:12:07;;;;;;;8.40;7.50;;;;;;;14.68;36.45;97072.31;4915309;29;20297;-85
2022/12/20 09:14:33;;;;;;;9.97;8.20;;;;;;;19.01;36.27;97838.16;4932018;29;20622;-85
2022/12/20 09:17:00;;;;;;;9.23;8.27;;;;;;;18.58;35.88;97748.81;4911305;29;20221;-84
2022/12/20 09:19:27;;;;;;;9.90;8.33;;;;;;;19.98;36.58;97967.38;4915399;29;20258;-84
2022/12/20 09:21:54;;;;;;;9.67;8.67;;;;;;;19.08;36.24;97801.94;4910576;29;20201;-85
2022/12/20 09:24:21;;;;;;;9.50;8.20;;;;;;;18.56;36.83;97704.59;4933125;29;20206;-84
2022/12/20 09:26:47;;;;;;;9.63;8.43;;;;;;;19.97;36.33;97941.81;4916892;29;20205;-84
2022/12/20 09:29:17;;;;;;;10.43;8.40;;;;;;;18.39;36.40;97658.88;4918131;29;20257;-84
2022/12/20 09:31:53;;;;;;;10.13;8.13;;;;;;;18.57;36.31;97697.84;4913658;29;20292;-85
2022/12/20 09:34:20;;;;;;;10.73;8.43;;;;;;;18.74;36.36;97724.91;4925723;29;20563;-84
2022/12/20 09:36:46;;;;;;;10.20;8.60;;;;;;;19.17;35.87;97793.03;4914202;29;20253;-84
2022/12/20 09:39:13;;;;;;;9.17;8.10;;;;;;;18.56;36.20;97696.97;4912821;29;20709;-85
2022/12/20 09:41:40;;;;;;;10.03;8.43;;;;;;;19.60;36.40;97888.38;4916865;29;20213;-85
2022/12/20 09:44:19;;;;;;;10.40;8.30;;;;;;;18.46;36.41;97697.38;4932587;29;20197;-85
2022/12/20 09:46:48;;;;;;;10.03;8.67;;;;;;;19.62;36.38;97908.84;4916100;29;20680;-85
2022/12/20 09:51:53;;;;;;;9.37;8.13;;;;;;;19.96;36.38;97975.78;4967341;23;20225;-90
2022/12/20 09:54:28;;;;;;;9.37;7.60;;;;;;;19.98;36.29;97978.41;4945380;29;20214;-90
2022/12/20 09:56:59;;;;;;;8.87;7.83;;;;;;;19.98;36.49;97976.72;4933198;29;20633;-90
2022/12/20 09:59:25;;;;;;;11.73;8.13;;;;;;;19.99;36.25;97965.72;4913127;29;20823;-90
2022/12/20 10:01:52;;;;;;;9.60;8.60;;;;;;;18.99;36.17;97794.81;4893878;29;20205;-90
2022/12/20 10:04:28;;;;;;;9.27;7.97;;;;;;;19.61;36.67;97902.88;4914693;29;20260;-90
2022/12/20 10:07:14;;;;;;;10.27;8.20;;;;;;;19.99;36.49;97946.16;4912735;29;20665;-91
2022/12/20 10:09:55;;;;;;;8.97;8.00;;;;;;;19.98;36.39;97946.97;4932011;29;20236;-90
2022/12/20 10:12:28;;;;;;;9.63;8.07;;;;;;;19.56;36.79;97870.34;4941627;29;20231;-90
2022/12/20 10:14:59;;;;;;;8.53;7.37;;;;;;;19.98;36.43;97918.91;4930271;29;20224;-91
2022/12/20 10:17:32;;;;;;;9.17;8.10;;;;;;;19.99;36.58;97912.16;4916464;29;20215;-91
2022/12/20 10:20:11;;;;;;;8.47;7.60;;;;;;;19.30;36.51;97799.56;4925028;29;20727;-90
2022/12/20 10:22:58;;;;;;;7.93;7.13;;;;;;;19.56;36.54;97839.75;4916743;29;20666;-90
2022/12/20 10:25:32;;;;;;;8.73;7.17;;;;;;;19.19;36.58;97778.66;4921654;29;20239;-90
2022/12/20 10:28:03;;;;;;;8.10;7.23;;;;;;;19.77;36.55;97874.66;4906490;29;20210;-91
2022/12/20 10:30:32;;;;;;;7.60;6.70;;;;;;;19.85;36.68;97885.19;4904816;29;20248;-90
2022/12/20 10:32:58;;;;;;;8.80;7.10;;;;;;;19.50;36.59;97816.53;4916806;29;20208;-90
2022/12/20 10:35:30;;;;;;;8.37;7.00;;;;;;;18.87;36.73;97701.72;4932958;29;20315;-90
2022/12/20 10:37:56;;;;;;;7.70;6.37;;;;;;;19.98;36.73;97893.41;4914068;29;20210;-90
2022/12/20 10:40:36;;;;;;;7.93;7.13;;;;;;;19.06;36.68;97732.22;4923874;29;20511;-90
2022/12/20 10:43:22;;;;;;;8.73;7.80;;;;;;;19.23;36.75;97746.56;4917017;29;20205;-90
2022/12/20 10:46:05;;;;;;;8.53;7.63;;;;;;;19.55;36.48;97809.97;4907233;29;20205;-87
2022/12/20 10:48:34;;;;;;;8.43;7.13;;;;;;;19.70;36.69;97821.69;4927807;29;20735;-90
2022/12/20 10:51:13;;;;;;;7.73;6.73;;;;;;;20.01;36.64;97879.03;4904421;29;20233;-90
2022/12/20 10:54:01;;;;;;;7.70;6.97;;;;;;;18.35;36.76;97598.47;4901118;29;20224;-90
2022/12/20 10:56:29;;;;;;;8.30;7.03;;;;;;;20.01;36.76;97879.03;4906291;29;20228;-91
2022/12/20 10:59:01;;;;;;;8.67;7.80;;;;;;;19.41;36.62;97767.72;4905092;29;20232;-90
2022/12/20 11:01:32;;;;;;;7.63;6.83;;;;;;;19.69;36.71;97819.91;4906536;29;20717;-90
2022/12/20 11:04:04;;;;;;;7.50;6.73;;;;;;;19.57;36.60;97791.38;4904927;29;20202;-90
2022/12/20 11:06:37;;;;;;;7.87;7.07;;;;;;;20.00;36.77;97852.66;4885778;29;20285;-91
2022/12/20 11:09:26;;;;;;;7.63;6.83;;;;;;;19.35;36.95;97768.38;4938657;29;20236;-88
2022/12/20 11:12:01;;;;;;;7.80;7.00;;;;;;;19.67;36.89;97802.81;4914164;29;20578;-90
2022/12/20 11:14:28;;;;;;;8.00;7.03;;;;;;;18.59;36.92;97605.47;4923988;29;20232;-91
2022/12/20 11:17:12;;;;;;;7.73;6.83;;;;;;;19.17;37.03;97714.06;4907348;29;20709;-87
2022/12/20 11:20:04;;;;;;;8.23;7.40;;;;;;;19.33;36.86;97721.56;4922729;29;20208;-90
2022/12/20 11:23:05;;;;;;;8.33;7.17;;;;;;;19.99;36.95;97827.97;4906026;29;20303;-88
2022/12/20 11:25:43;;;;;;;8.03;6.80;;;;;;;19.36;37.11;97724.22;4900608;29;20583;-88
2022/12/20 11:28:27;;;;;;;7.63;6.67;;;;;;;19.34;36.82;97715.66;4915555;29;20662;-90
2022/12/20 11:31:06;;;;;;;7.47;6.77;;;;;;;20.00;36.72;97801.63;4916018;29;20267;-91
2022/12/20 11:33:46;;;;;;;7.70;6.90;;;;;;;20.01;36.98;97794.84;4919105;29;20690;-89
2022/12/20 11:36:35;;;;;;;7.77;6.97;;;;;;;20.01;36.81;97798.25;4914121;29;20315;-90
2022/12/20 11:39:14;;;;;;;8.47;7.57;;;;;;;20.01;36.75;97790.59;4913964;29;20209;-90
2022/12/20 11:41:51;;;;;;;8.57;7.27;;;;;;;19.32;36.59;97714.72;4923396;29;20338;-91
2022/12/20 11:44:26;;;;;;;8.63;7.73;;;;;;;20.01;36.76;97782.09;4894543;29;20292;-90
2022/12/20 11:47:21;;;;;;;8.40;7.60;;;;;;;20.01;37.09;97779.56;4921004;29;20216;-90
2022/12/20 11:50:25;;;;;;;9.37;7.30;;;;;;;20.01;36.92;97775.28;4927866;29;21054;-90
2022/12/20 11:53:01;;;;;;;7.70;7.00;;;;;;;19.74;36.91;97735.94;4940484;29;20209;-90